createdAt,value
2017-10-15T00:01:35.406Z,8.80
2017-10-15T00:04:03.270Z,9.17
2017-10-15T00:06:31.314Z,8.00
2017-10-15T00:08:58.791Z,8.40
2017-10-15T00:11:26.273Z,13.17
2017-10-15T00:13:54.188Z,10.47
2017-10-15T00:16:21.688Z,8.80
2017-10-15T00:18:49.128Z,7.83
2017-10-15T00:21:17.234Z,7.77
2017-10-15T00:23:44.651Z,8.00
2017-10-15T00:26:12.129Z,8.00
2017-10-15T00:28:39.615Z,7.80
2017-10-15T00:31:07.064Z,7.03
2017-10-15T00:33:34.564Z,9.00
2017-10-15T00:36:02.401Z,7.13
2017-10-15T00:38:29.866Z,7.80
2017-10-15T00:40:57.354Z,7.70
2017-10-15T00:43:25.195Z,7.97
2017-10-15T00:45:52.676Z,8.67
2017-10-15T00:48:20.544Z,8.60
2017-10-15T00:50:47.987Z,6.97
2017-10-15T00:53:15.456Z,7.10
2017-10-15T00:55:42.928Z,7.93
2017-10-15T00:58:10.381Z,7.70
2017-10-15T01:00:37.954Z,7.47
2017-10-15T01:03:05.449Z,8.23
2017-10-15T01:05:34.027Z,7.50
2017-10-15T01:08:01.470Z,7.27
2017-10-15T01:10:39.616Z,8.60
2017-10-15T01:13:07.053Z,7.10
2017-10-15T01:15:34.982Z,7.90
2017-10-15T01:18:02.512Z,8.37
2017-10-15T01:20:29.995Z,7.70
2017-10-15T01:22:58.487Z,7.47
2017-10-15T01:25:25.966Z,6.70
2017-10-15T01:27:53.429Z,7.20
2017-10-15T01:30:20.885Z,7.93
2017-10-15T01:32:48.371Z,7.73
2017-10-15T01:35:15.809Z,8.33
2017-10-15T01:37:43.262Z,7.60
2017-10-15T01:40:10.732Z,6.97
2017-10-15T01:42:38.229Z,6.63
2017-10-15T01:45:06.083Z,7.03
2017-10-15T01:47:33.581Z,7.03
2017-10-15T01:50:01.056Z,6.50
2017-10-15T01:52:28.549Z,7.23
2017-10-15T01:54:56.016Z,8.10
2017-10-15T01:57:23.579Z,7.30
2017-10-15T01:59:51.057Z,7.70
2017-10-15T02:02:18.530Z,6.60
2017-10-15T02:04:46.017Z,7.80
2017-10-15T02:07:13.480Z,7.27
2017-10-15T02:09:40.906Z,6.37
2017-10-15T02:12:08.770Z,7.87
2017-10-15T02:14:36.313Z,7.27
2017-10-15T02:17:03.786Z,7.87
2017-10-15T02:19:31.251Z,8.63
2017-10-15T02:21:58.703Z,7.70
2017-10-15T02:24:26.170Z,8.00
2017-10-15T02:26:54.458Z,7.40
2017-10-15T02:29:22.007Z,7.60
2017-10-15T02:31:49.585Z,7.03
2017-10-15T02:34:17.496Z,8.90
2017-10-15T02:36:45.343Z,7.80
2017-10-15T02:39:12.800Z,7.77
2017-10-15T02:41:40.276Z,6.33
2017-10-15T02:44:08.138Z,7.10
2017-10-15T02:46:35.993Z,7.50
2017-10-15T02:49:04.134Z,8.17
2017-10-15T02:51:31.593Z,7.23
2017-10-15T02:53:59.086Z,7.40
2017-10-15T02:56:26.557Z,8.20
2017-10-15T02:58:54.033Z,7.30
2017-10-15T03:01:21.471Z,6.40
2017-10-15T03:03:48.960Z,6.33
2017-10-15T03:06:16.418Z,6.50
2017-10-15T03:08:43.878Z,7.80
2017-10-15T03:11:12.272Z,7.40
2017-10-15T03:13:40.131Z,6.80
2017-10-15T03:16:07.740Z,8.33
2017-10-15T03:18:35.206Z,8.27
2017-10-15T03:21:02.692Z,6.87
2017-10-15T03:23:30.136Z,7.73
2017-10-15T03:25:57.638Z,6.97
2017-10-15T03:28:25.925Z,6.80
2017-10-15T03:30:53.382Z,6.23
2017-10-15T03:33:20.839Z,6.83
2017-10-15T03:35:48.309Z,8.10
2017-10-15T03:38:15.759Z,7.60
2017-10-15T03:40:43.215Z,7.23
2017-10-15T03:43:10.693Z,7.27
2017-10-15T03:45:38.167Z,6.20
2017-10-15T03:48:05.649Z,7.90
2017-10-15T03:50:33.120Z,7.33
2017-10-15T03:53:00.558Z,7.37
2017-10-15T03:55:28.438Z,7.53
2017-10-15T03:57:56.345Z,6.27
2017-10-15T04:00:23.802Z,6.60
2017-10-15T04:02:51.292Z,7.20
2017-10-15T04:05:20.186Z,7.23
2017-10-15T04:07:47.636Z,7.47
2017-10-15T04:10:15.104Z,8.00
2017-10-15T04:12:42.585Z,7.40
2017-10-15T04:15:10.049Z,8.60
2017-10-15T04:17:37.497Z,7.57
2017-10-15T04:20:04.956Z,6.80
2017-10-15T04:22:32.447Z,8.10
2017-10-15T04:25:00.013Z,6.43
2017-10-15T04:27:27.858Z,7.23
2017-10-15T04:29:55.321Z,7.27
2017-10-15T04:32:22.801Z,7.10
2017-10-15T04:34:50.262Z,7.97
2017-10-15T04:37:19.270Z,7.40
2017-10-15T04:39:46.729Z,7.10
2017-10-15T04:42:14.585Z,6.77
2017-10-15T04:44:42.095Z,7.20
2017-10-15T04:47:09.574Z,6.73
2017-10-15T04:49:37.073Z,7.80
2017-10-15T04:52:04.594Z,8.33
2017-10-15T04:54:32.092Z,6.80
2017-10-15T04:56:59.560Z,7.53
2017-10-15T04:59:27.072Z,7.10
2017-10-15T05:01:54.596Z,7.00
2017-10-15T05:04:22.142Z,6.90
2017-10-15T05:06:49.662Z,6.90
2017-10-15T05:09:17.133Z,7.60
2017-10-15T05:11:44.594Z,7.03
2017-10-15T05:14:12.081Z,7.77
2017-10-15T05:16:39.578Z,8.30
2017-10-15T05:19:07.011Z,7.60
2017-10-15T05:21:34.595Z,7.97
2017-10-15T05:24:03.383Z,7.90
2017-10-15T05:26:30.857Z,7.33
2017-10-15T05:28:58.737Z,6.97
2017-10-15T05:31:26.641Z,7.30
2017-10-15T05:33:54.132Z,8.57
2017-10-15T05:36:21.607Z,6.80
2017-10-15T05:38:49.087Z,8.90
2017-10-15T05:41:16.943Z,8.93
2017-10-15T05:43:44.540Z,8.37
2017-10-15T05:46:12.415Z,10.50
2017-10-15T05:48:39.899Z,10.83
2017-10-15T05:51:07.475Z,9.90
2017-10-15T05:53:34.981Z,14.43
2017-10-15T05:56:02.455Z,11.67
2017-10-15T05:58:30.332Z,13.07
2017-10-15T06:00:58.244Z,13.40
2017-10-15T06:03:25.716Z,13.67
2017-10-15T06:05:53.371Z,16.00
2017-10-15T06:08:20.876Z,15.30
2017-10-15T06:10:48.329Z,15.10
2017-10-15T06:13:15.824Z,15.57
2017-10-15T06:15:43.672Z,18.53
2017-10-15T06:18:11.124Z,15.60
2017-10-15T06:20:38.675Z,17.07
2017-10-15T06:23:06.143Z,17.37
2017-10-15T06:25:33.603Z,17.87
2017-10-15T06:28:01.103Z,16.93
2017-10-15T06:30:28.989Z,16.80
2017-10-15T06:32:56.440Z,16.37
2017-10-15T06:35:23.964Z,16.27
2017-10-15T06:37:51.434Z,20.23
2017-10-15T06:40:18.906Z,17.23
2017-10-15T06:42:46.438Z,23.30
2017-10-15T06:45:13.884Z,19.37
2017-10-15T06:47:41.333Z,20.00
2017-10-15T06:50:08.791Z,18.17
2017-10-15T06:52:36.286Z,18.27
2017-10-15T06:55:05.365Z,23.20
2017-10-15T06:57:32.849Z,18.70
2017-10-15T07:00:00.304Z,21.20
2017-10-15T07:02:27.742Z,19.07
2017-10-15T07:04:55.210Z,19.57
2017-10-15T07:07:22.663Z,19.50
2017-10-15T07:09:50.124Z,18.00
2017-10-15T07:12:17.572Z,19.37
2017-10-15T07:14:46.472Z,19.53
2017-10-15T07:17:14.429Z,17.10
2017-10-15T07:19:41.903Z,17.53
2017-10-15T07:22:09.772Z,17.27
2017-10-15T07:24:37.657Z,16.33
2017-10-15T07:27:05.659Z,16.03
2017-10-15T07:29:33.147Z,15.47
2017-10-15T07:32:00.964Z,14.70
2017-10-15T07:34:28.433Z,14.00
2017-10-15T07:36:55.966Z,16.00
2017-10-15T07:39:23.825Z,14.83
2017-10-15T07:41:51.709Z,15.13
2017-10-15T07:44:19.580Z,15.63
2017-10-15T07:46:47.474Z,15.60
2017-10-15T07:49:14.918Z,14.83
2017-10-15T07:51:42.753Z,14.00
2017-10-15T07:54:10.267Z,15.63
2017-10-15T07:56:38.123Z,14.70
2017-10-15T07:59:05.981Z,14.93
2017-10-15T08:01:33.455Z,16.13
2017-10-15T08:04:01.001Z,15.90
2017-10-15T08:06:28.670Z,18.50
2017-10-15T08:08:56.186Z,17.13
2017-10-15T08:11:23.678Z,18.00
2017-10-15T08:13:51.178Z,17.93
2017-10-15T08:16:19.037Z,16.80
2017-10-15T08:18:46.513Z,16.90
2017-10-15T08:21:16.233Z,18.60
2017-10-15T08:23:43.676Z,18.43
2017-10-15T08:26:11.530Z,17.70
2017-10-15T08:28:39.000Z,18.00
2017-10-15T08:31:06.476Z,20.50
2017-10-15T08:33:34.350Z,22.13
2017-10-15T08:36:02.231Z,19.80
2017-10-15T08:38:29.709Z,22.17
2017-10-15T08:40:57.237Z,23.50
2017-10-15T08:43:24.736Z,23.60
2017-10-15T08:45:52.172Z,21.67
2017-10-15T08:48:20.068Z,22.60
2017-10-15T08:50:47.535Z,23.63
2017-10-15T08:53:14.995Z,21.40
2017-10-15T08:55:42.482Z,25.23
2017-10-15T08:58:11.220Z,24.17
2017-10-15T09:00:38.699Z,24.00
2017-10-15T09:03:06.229Z,21.30
2017-10-15T09:05:33.778Z,22.27
2017-10-15T09:08:01.276Z,22.33
2017-10-15T09:10:29.145Z,22.47
2017-10-15T09:12:57.087Z,23.67
2017-10-15T09:15:25.617Z,24.67
2017-10-15T09:17:53.105Z,23.50
2017-10-15T09:20:20.560Z,24.50
2017-10-15T09:22:48.039Z,26.30
2017-10-15T09:25:15.542Z,25.30
2017-10-15T09:27:43.425Z,23.80
2017-10-15T09:30:11.350Z,23.20
2017-10-15T09:32:39.147Z,26.43
2017-10-15T09:35:06.645Z,25.67
2017-10-15T09:37:34.124Z,27.47
2017-10-15T09:40:01.679Z,28.73
2017-10-15T09:42:29.318Z,26.37
2017-10-15T09:44:57.272Z,26.00
2017-10-15T09:47:24.749Z,27.60
2017-10-15T09:49:52.992Z,27.17
2017-10-15T09:52:20.807Z,26.17
2017-10-15T09:54:48.464Z,27.10
2017-10-15T09:57:16.334Z,27.13
2017-10-15T09:59:43.840Z,26.17
2017-10-15T10:02:11.366Z,27.67
2017-10-15T10:04:39.316Z,22.17
2017-10-15T10:07:06.840Z,25.20
2017-10-15T10:09:35.323Z,24.17
2017-10-15T10:12:02.943Z,23.83
2017-10-15T10:14:30.555Z,22.97
2017-10-15T10:16:58.098Z,24.30
2017-10-15T10:19:26.015Z,24.40
2017-10-15T10:21:53.487Z,24.50
2017-10-15T10:24:21.009Z,23.70
2017-10-15T10:26:48.458Z,22.47
2017-10-15T10:29:15.969Z,26.33
2017-10-15T10:31:43.532Z,23.00
2017-10-15T10:34:11.043Z,22.67
2017-10-15T10:36:38.958Z,24.70
2017-10-15T10:39:06.578Z,27.50
2017-10-15T10:41:34.529Z,24.37
2017-10-15T10:44:02.109Z,24.20
2017-10-15T10:46:29.957Z,24.17
2017-10-15T10:48:57.492Z,23.90
2017-10-15T10:51:25.009Z,22.50
2017-10-15T10:53:52.883Z,23.63
2017-10-15T10:56:20.388Z,25.83
2017-10-15T10:58:47.996Z,25.00
2017-10-15T11:01:15.446Z,24.60
2017-10-15T11:03:42.923Z,26.83
2017-10-15T11:06:10.487Z,23.80
2017-10-15T11:08:39.777Z,25.20
2017-10-15T11:11:07.276Z,26.93
2017-10-15T11:13:35.263Z,24.30
2017-10-15T11:16:02.712Z,25.73
2017-10-15T11:18:30.378Z,23.40
2017-10-15T11:20:57.876Z,27.67
2017-10-15T11:23:25.536Z,24.83
2017-10-15T11:25:53.109Z,25.93
2017-10-15T11:28:20.592Z,27.53
2017-10-15T11:30:48.153Z,26.20
2017-10-15T11:33:15.642Z,27.70
2017-10-15T11:35:43.103Z,27.93
2017-10-15T11:38:10.983Z,29.53
2017-10-15T11:40:38.861Z,30.23
2017-10-15T11:43:06.751Z,30.20
2017-10-15T11:45:36.672Z,31.00
2017-10-15T11:48:04.187Z,32.17
2017-10-15T11:50:31.744Z,30.17
2017-10-15T11:52:59.214Z,32.70
2017-10-15T11:55:26.640Z,32.40
2017-10-15T11:57:54.096Z,32.97
2017-10-15T12:00:21.562Z,34.87
2017-10-15T12:02:49.020Z,36.43
2017-10-15T12:05:16.517Z,32.87
2017-10-15T12:07:43.956Z,36.27
2017-10-15T12:10:11.430Z,35.03
2017-10-15T12:12:38.880Z,32.90
2017-10-15T12:15:06.333Z,34.40
2017-10-15T12:17:33.767Z,34.80
2017-10-15T12:20:01.260Z,37.07
2017-10-15T12:22:28.696Z,37.80
2017-10-15T12:24:56.183Z,38.67
2017-10-15T12:27:24.104Z,38.77
2017-10-15T12:29:51.956Z,35.00
2017-10-15T12:32:19.454Z,36.80
2017-10-15T12:34:47.506Z,37.27
2017-10-15T12:37:14.987Z,37.90
2017-10-15T12:39:42.912Z,34.00
2017-10-15T12:42:10.356Z,39.80
2017-10-15T12:44:37.784Z,36.53
2017-10-15T12:47:05.238Z,36.13
2017-10-15T12:49:32.679Z,36.80
2017-10-15T12:52:01.642Z,37.50
2017-10-15T12:54:29.127Z,34.93
2017-10-15T12:56:56.575Z,36.60
2017-10-15T12:59:24.349Z,34.73
2017-10-15T13:01:51.946Z,37.10
2017-10-15T13:04:19.882Z,41.27
2017-10-15T13:06:47.422Z,38.60
2017-10-15T13:09:14.905Z,37.67
2017-10-15T13:11:42.409Z,37.13
2017-10-15T13:14:09.879Z,37.83
2017-10-15T13:16:37.915Z,39.20
2017-10-15T13:19:05.417Z,36.90
2017-10-15T13:21:33.288Z,37.93
2017-10-15T13:24:00.748Z,37.73
2017-10-15T13:26:28.656Z,37.10
2017-10-15T13:28:56.225Z,37.63
2017-10-15T13:31:23.741Z,37.80
2017-10-15T13:33:51.661Z,35.53
2017-10-15T13:36:19.129Z,38.00
2017-10-15T13:38:46.641Z,36.77
2017-10-15T13:41:14.700Z,34.93
2017-10-15T13:43:42.154Z,36.97
2017-10-15T13:46:09.637Z,35.20
2017-10-15T13:48:37.704Z,37.67
2017-10-15T13:51:05.257Z,34.53
2017-10-15T13:53:32.747Z,33.30
2017-10-15T13:56:00.652Z,34.87
2017-10-15T13:58:28.168Z,34.47
2017-10-15T14:00:55.679Z,33.20
2017-10-15T14:03:23.346Z,34.47
2017-10-15T14:05:50.803Z,33.00
2017-10-15T14:08:18.326Z,34.10
2017-10-15T14:10:46.749Z,33.27
2017-10-15T14:13:14.282Z,33.20
2017-10-15T14:15:41.788Z,35.40
2017-10-15T14:18:09.312Z,32.90
2017-10-15T14:20:37.452Z,35.03
2017-10-15T14:23:04.965Z,32.70
2017-10-15T14:25:32.465Z,33.97
2017-10-15T14:27:59.929Z,33.30
2017-10-15T14:30:27.420Z,32.50
2017-10-15T14:32:54.896Z,30.60
2017-10-15T14:35:22.366Z,30.23
2017-10-15T14:37:50.237Z,31.20
2017-10-15T14:40:18.127Z,32.57
2017-10-15T14:42:45.603Z,31.10
2017-10-15T14:45:13.101Z,32.13
2017-10-15T14:47:40.534Z,31.47
2017-10-15T14:50:07.994Z,29.63
2017-10-15T14:52:35.456Z,31.33
2017-10-15T14:55:06.789Z,30.20
2017-10-15T14:57:34.370Z,29.70
2017-10-15T15:00:01.816Z,31.67
2017-10-15T15:02:29.288Z,32.30
2017-10-15T15:04:56.783Z,31.57
2017-10-15T15:07:24.316Z,31.37
2017-10-15T15:09:51.786Z,29.57
2017-10-15T15:12:19.285Z,29.33
2017-10-15T15:14:47.198Z,30.07
2017-10-15T15:17:14.645Z,30.50
2017-10-15T15:19:42.493Z,31.77
2017-10-15T15:22:09.990Z,31.10
2017-10-15T15:24:37.452Z,30.70
2017-10-15T15:27:04.910Z,30.80
2017-10-15T15:29:33.589Z,29.77
2017-10-15T15:32:01.471Z,28.20
2017-10-15T15:34:29.389Z,31.13
2017-10-15T15:36:56.861Z,30.53
2017-10-15T15:39:24.323Z,31.60
2017-10-15T15:41:51.772Z,28.83
2017-10-15T15:44:19.350Z,30.67
2017-10-15T15:46:46.806Z,29.77
2017-10-15T15:49:14.269Z,29.80
2017-10-15T15:51:41.786Z,29.63
2017-10-15T15:54:09.257Z,28.97
2017-10-15T15:56:37.220Z,29.90
2017-10-15T15:59:04.814Z,30.50
2017-10-15T16:01:32.314Z,27.40
2017-10-15T16:03:59.826Z,28.60
2017-10-15T16:06:27.285Z,32.33
2017-10-15T16:08:54.717Z,30.00
2017-10-15T16:11:22.575Z,30.57
2017-10-15T16:13:50.008Z,29.47
2017-10-15T16:16:17.460Z,34.37
2017-10-15T16:18:44.892Z,29.43
2017-10-15T16:21:12.333Z,30.57
2017-10-15T16:23:40.173Z,33.80
2017-10-15T16:26:07.737Z,33.27
2017-10-15T16:28:35.160Z,33.40
2017-10-15T16:31:02.603Z,31.77
2017-10-15T16:33:30.085Z,33.60
2017-10-15T16:35:57.523Z,32.37
2017-10-15T16:38:25.338Z,35.37
2017-10-15T16:40:52.816Z,33.10
2017-10-15T16:43:20.245Z,32.50
2017-10-15T16:45:47.683Z,31.67
2017-10-15T16:48:15.159Z,34.63
2017-10-15T16:50:42.599Z,32.37
2017-10-15T16:53:10.495Z,34.40
2017-10-15T16:55:37.952Z,34.80
2017-10-15T16:58:05.378Z,33.10
2017-10-15T17:00:33.268Z,32.70
2017-10-15T17:03:01.123Z,35.33
2017-10-15T17:05:28.525Z,33.87
2017-10-15T17:07:55.986Z,35.43
2017-10-15T17:10:23.625Z,34.50
2017-10-15T17:12:51.048Z,33.37
2017-10-15T17:15:18.495Z,33.40
2017-10-15T17:17:45.920Z,33.93
2017-10-15T17:20:13.363Z,33.60
2017-10-15T17:22:41.215Z,32.87
2017-10-15T17:25:08.635Z,33.63
2017-10-15T17:27:36.300Z,35.07
2017-10-15T17:30:04.694Z,34.43
2017-10-15T17:32:32.171Z,33.30
2017-10-15T17:35:00.734Z,33.87
2017-10-15T17:37:28.230Z,35.80
2017-10-15T17:39:55.650Z,33.50
2017-10-15T17:42:24.706Z,34.33
2017-10-15T17:44:52.285Z,33.20
2017-10-15T17:47:20.158Z,34.23
2017-10-15T17:49:58.987Z,32.00
2017-10-15T17:52:26.851Z,34.17
2017-10-15T17:54:57.055Z,33.83
2017-10-15T17:57:24.575Z,32.30
2017-10-15T17:59:52.156Z,31.80
2017-10-15T18:02:26.916Z,31.80
2017-10-15T18:04:54.355Z,32.60
2017-10-15T18:07:21.883Z,32.60
2017-10-15T18:09:49.297Z,29.30
2017-10-15T18:12:16.832Z,30.57
2017-10-15T18:14:44.257Z,30.00
2017-10-15T18:17:11.718Z,29.40
2017-10-15T18:19:40.328Z,29.67
2017-10-15T18:22:07.749Z,29.97
2017-10-15T18:24:35.669Z,30.40
2017-10-15T18:27:03.134Z,30.67
2017-10-15T18:29:30.587Z,29.70
2017-10-15T18:31:58.095Z,30.80
2017-10-15T18:34:25.538Z,28.50
2017-10-15T18:36:52.974Z,30.63
2017-10-15T18:39:20.419Z,29.17
2017-10-15T18:41:47.839Z,29.27
2017-10-15T18:44:15.358Z,29.47
2017-10-15T18:46:42.785Z,30.80
2017-10-15T18:49:10.208Z,29.80
2017-10-15T18:51:37.663Z,30.50
2017-10-15T18:54:05.089Z,29.53
2017-10-15T18:56:32.514Z,29.27
2017-10-15T18:59:00.863Z,29.43
2017-10-15T19:01:28.288Z,29.43
2017-10-15T19:03:55.717Z,30.23
2017-10-15T19:06:23.556Z,28.43
2017-10-15T19:08:50.996Z,30.30
2017-10-15T19:11:18.449Z,30.47
2017-10-15T19:13:45.895Z,31.10
2017-10-15T19:16:13.908Z,32.00
2017-10-15T19:18:41.365Z,30.60
2017-10-15T19:21:08.807Z,31.07
2017-10-15T19:23:36.224Z,34.37
2017-10-15T19:26:04.152Z,31.93
2017-10-15T19:28:31.604Z,31.80
2017-10-15T19:30:59.027Z,32.47
2017-10-15T19:33:26.853Z,29.77
2017-10-15T19:35:54.301Z,29.67
2017-10-15T19:38:21.791Z,30.07
2017-10-15T19:40:49.211Z,28.60
2017-10-15T19:43:17.048Z,31.30
2017-10-15T19:45:44.475Z,32.33
2017-10-15T19:48:11.916Z,30.63
2017-10-15T19:50:39.356Z,33.50
2017-10-15T19:53:06.791Z,31.70
2017-10-15T19:55:34.295Z,30.97
2017-10-15T19:58:01.740Z,31.23
2017-10-15T20:00:29.177Z,31.27
2017-10-15T20:02:56.596Z,31.90
2017-10-15T20:05:24.037Z,37.10
2017-10-15T20:07:51.463Z,33.90
2017-10-15T20:10:19.292Z,33.03
2017-10-15T20:12:46.755Z,37.60
2017-10-15T20:15:14.201Z,32.20
2017-10-15T20:17:41.627Z,32.67
2017-10-15T20:20:09.529Z,32.77
2017-10-15T20:22:37.028Z,32.77
2017-10-15T20:25:04.557Z,33.00
2017-10-15T20:27:31.993Z,34.60
2017-10-15T20:30:00.005Z,34.03
2017-10-15T20:32:27.428Z,34.67
2017-10-15T20:34:55.411Z,31.33
2017-10-15T20:37:22.873Z,35.17
2017-10-15T20:39:50.272Z,34.80
2017-10-15T20:42:17.695Z,34.17
2017-10-15T20:44:45.117Z,31.80
2017-10-15T20:47:13.928Z,32.03
2017-10-15T20:49:41.479Z,34.57
2017-10-15T20:52:09.359Z,39.73
2017-10-15T20:54:37.276Z,42.63
2017-10-15T20:57:04.931Z,39.90
2017-10-15T20:59:32.418Z,35.00
2017-10-15T21:01:59.901Z,34.90
2017-10-15T21:04:27.369Z,35.80
2017-10-15T21:06:54.801Z,32.63
2017-10-15T21:09:22.228Z,32.53
2017-10-15T21:11:49.696Z,33.40
2017-10-15T21:14:17.253Z,34.20
2017-10-15T21:16:45.083Z,32.33
2017-10-15T21:19:12.605Z,32.87
2017-10-15T21:21:40.033Z,32.20
2017-10-15T21:24:07.456Z,34.07
2017-10-15T21:26:34.908Z,32.70
2017-10-15T21:29:02.337Z,35.17
2017-10-15T21:31:29.759Z,32.33
2017-10-15T21:33:57.197Z,30.60
2017-10-15T21:36:24.637Z,30.80
2017-10-15T21:38:52.637Z,32.23
2017-10-15T21:41:20.079Z,30.60
2017-10-15T21:43:47.512Z,30.47
2017-10-15T21:46:15.006Z,28.77
2017-10-15T21:48:43.971Z,32.10
2017-10-15T21:51:11.402Z,30.40
2017-10-15T21:53:38.922Z,31.10
2017-10-15T21:56:06.362Z,28.17
2017-10-15T21:58:33.794Z,30.10
2017-10-15T22:01:01.217Z,31.60
2017-10-15T22:03:28.649Z,31.20
2017-10-15T22:05:56.080Z,29.60
2017-10-15T22:08:23.500Z,30.00
2017-10-15T22:10:50.931Z,31.40
2017-10-15T22:13:18.411Z,29.43
2017-10-15T22:15:45.877Z,30.53
2017-10-15T22:18:19.090Z,31.10
2017-10-15T22:21:04.367Z,28.40
2017-10-15T22:23:31.824Z,29.63
2017-10-15T22:25:59.648Z,29.27
2017-10-15T22:28:27.076Z,28.17
2017-10-15T22:30:54.618Z,29.17
2017-10-15T22:33:22.047Z,27.90
2017-10-15T22:35:49.499Z,29.87
2017-10-15T22:38:16.916Z,30.67
2017-10-15T22:40:44.444Z,30.20
2017-10-15T22:43:12.023Z,27.43
2017-10-15T22:45:39.440Z,29.00
2017-10-15T22:48:06.871Z,30.43
2017-10-15T22:50:34.403Z,27.67
2017-10-15T22:53:01.847Z,29.03
2017-10-15T22:55:29.273Z,31.23
2017-10-15T22:57:57.129Z,29.30
2017-10-15T23:00:24.580Z,25.20
2017-10-15T23:02:52.114Z,22.37
2017-10-15T23:05:19.769Z,23.17
2017-10-15T23:07:47.242Z,25.20
2017-10-15T23:10:14.717Z,24.83
2017-10-15T23:12:42.145Z,25.90
2017-10-15T23:15:09.589Z,26.60
2017-10-15T23:17:37.450Z,25.20
2017-10-15T23:20:05.296Z,25.03
2017-10-15T23:22:32.836Z,28.57
2017-10-15T23:25:00.311Z,30.20
2017-10-15T23:27:27.748Z,29.00
2017-10-15T23:29:55.207Z,28.77
2017-10-15T23:32:22.661Z,30.50
2017-10-15T23:34:50.109Z,28.73
2017-10-15T23:37:18.018Z,30.23
2017-10-15T23:39:45.572Z,31.47
2017-10-15T23:42:13.005Z,30.90
2017-10-15T23:44:40.852Z,29.53
2017-10-15T23:47:09.509Z,31.30
2017-10-15T23:49:37.051Z,27.47
2017-10-15T23:52:04.481Z,28.00
2017-10-15T23:54:32.492Z,28.07
2017-10-15T23:56:59.936Z,26.43
2017-10-15T23:59:27.383Z,26.27
